createdAt,value
2022-08-20T00:01:19.954Z,16.00
2022-08-20T00:04:25.648Z,14.10
2022-08-20T00:10:38.421Z,16.90
2022-08-20T00:13:47.178Z,14.30
2022-08-20T00:16:52.970Z,15.70
2022-08-20T00:23:06.246Z,13.60
2022-08-20T00:26:16.931Z,13.70
2022-08-20T00:29:23.604Z,12.70
2022-08-20T00:32:30.040Z,13.80
2022-08-20T00:35:38.988Z,14.80
2022-08-20T00:38:46.988Z,16.00
2022-08-20T00:41:53.335Z,14.80
2022-08-20T00:44:59.568Z,14.80
2022-08-20T00:48:06.640Z,13.60
2022-08-20T00:51:30.141Z,14.20
2022-08-20T00:54:40.534Z,13.80
2022-08-20T00:58:01.711Z,13.30
2022-08-20T01:01:09.575Z,14.50
2022-08-20T01:04:16.027Z,14.90
2022-08-20T01:07:30.431Z,14.40
2022-08-20T01:10:39.491Z,15.90
2022-08-20T01:13:48.154Z,14.90
2022-08-20T01:17:01.656Z,15.70
2022-08-20T01:20:12.437Z,14.50
2022-08-20T01:23:30.480Z,15.10
2022-08-20T01:26:39.845Z,16.70
2022-08-20T01:29:47.101Z,14.30
2022-08-20T01:32:53.444Z,13.30
2022-08-20T01:36:00.734Z,16.40
2022-08-20T01:39:10.179Z,14.20
2022-08-20T01:42:25.445Z,13.50
2022-08-20T01:45:32.035Z,12.30
2022-08-20T01:48:40.060Z,14.80
2022-08-20T01:51:46.828Z,15.40
2022-08-20T01:54:55.827Z,14.00
2022-08-20T01:58:03.385Z,14.30
2022-08-20T02:01:19.856Z,15.40
2022-08-20T02:04:27.319Z,19.20
2022-08-20T02:07:34.076Z,13.30
2022-08-20T02:10:40.626Z,16.80
2022-08-20T02:13:49.894Z,13.70
2022-08-20T02:16:58.738Z,15.00
2022-08-20T02:20:09.320Z,14.50
2022-08-20T02:23:16.868Z,15.40
2022-08-20T02:26:23.401Z,16.00
2022-08-20T02:29:29.949Z,14.90
2022-08-20T02:32:36.292Z,13.80
2022-08-20T02:35:44.266Z,16.60
2022-08-20T02:38:50.641Z,16.60
2022-08-20T02:41:57.285Z,14.90
2022-08-20T02:45:06.331Z,14.40
2022-08-20T02:48:21.091Z,14.90
2022-08-20T02:51:30.181Z,16.10
2022-08-20T02:54:37.177Z,13.90
2022-08-20T02:57:43.692Z,13.40
2022-08-20T03:00:50.494Z,14.70
2022-08-20T03:03:59.230Z,16.90
2022-08-20T03:07:07.681Z,14.80
2022-08-20T03:10:14.885Z,16.70
2022-08-20T03:13:22.761Z,14.90
2022-08-20T03:16:29.040Z,14.60
2022-08-20T03:19:35.376Z,13.50
2022-08-20T03:22:41.644Z,16.00
2022-08-20T03:25:48.542Z,13.50
2022-08-20T03:28:54.902Z,15.20
2022-08-20T03:32:03.911Z,14.10
2022-08-20T03:35:16.161Z,15.90
2022-08-20T03:38:32.442Z,17.80
2022-08-20T03:41:39.845Z,16.00
2022-08-20T03:44:46.130Z,16.70
2022-08-20T03:47:55.810Z,15.40
2022-08-20T03:51:02.700Z,14.80
2022-08-20T03:54:09.139Z,15.70
2022-08-20T03:57:17.955Z,15.40
2022-08-20T04:00:27.141Z,14.50
2022-08-20T04:03:33.578Z,14.40
2022-08-20T04:06:40.434Z,15.10
2022-08-20T04:09:47.561Z,15.50
2022-08-20T04:12:53.828Z,16.20
2022-08-20T04:16:02.305Z,14.50
2022-08-20T04:19:09.542Z,16.40
2022-08-20T04:22:16.506Z,13.50
2022-08-20T04:25:24.002Z,13.40
2022-08-20T04:28:30.485Z,14.30
2022-08-20T04:31:36.743Z,14.60
2022-08-20T04:34:43.749Z,15.60
2022-08-20T04:38:01.484Z,14.80
2022-08-20T04:41:08.512Z,14.40
2022-08-20T04:44:29.008Z,18.50
2022-08-20T04:47:35.876Z,17.70
2022-08-20T04:50:45.219Z,15.20
2022-08-20T04:53:53.751Z,16.20
2022-08-20T04:57:02.137Z,15.10
2022-08-20T05:00:14.377Z,15.80
2022-08-20T05:03:21.393Z,15.90
2022-08-20T05:06:30.040Z,15.00
2022-08-20T05:09:43.935Z,15.50
2022-08-20T05:12:56.510Z,16.60
2022-08-20T05:16:05.221Z,14.80
2022-08-20T05:19:13.492Z,15.00
2022-08-20T05:22:19.821Z,19.30
2022-08-20T05:25:29.450Z,15.90
2022-08-20T05:28:42.183Z,15.70
2022-08-20T05:32:03.330Z,15.70
2022-08-20T05:35:12.453Z,15.80
2022-08-20T05:38:21.084Z,18.60
2022-08-20T05:41:30.455Z,14.70
2022-08-20T05:44:37.747Z,14.00
2022-08-20T05:47:44.796Z,16.70
2022-08-20T05:50:55.341Z,15.60
2022-08-20T05:54:01.924Z,17.00
2022-08-20T05:57:08.507Z,16.00
2022-08-20T06:00:17.393Z,16.40
2022-08-20T06:03:42.196Z,17.50
2022-08-20T06:06:48.661Z,21.60
2022-08-20T06:09:54.966Z,18.00
2022-08-20T06:13:01.445Z,16.60
2022-08-20T06:16:08.240Z,15.80
2022-08-20T06:19:14.812Z,15.30
2022-08-20T06:22:31.689Z,21.50
2022-08-20T06:25:38.877Z,14.20
2022-08-20T06:28:45.168Z,16.40
2022-08-20T06:31:51.938Z,18.40
2022-08-20T06:34:58.248Z,18.30
2022-08-20T06:38:08.244Z,18.20
2022-08-20T06:41:14.953Z,20.40
2022-08-20T06:44:21.641Z,16.50
2022-08-20T06:47:27.992Z,14.70
2022-08-20T06:50:47.029Z,16.60
2022-08-20T06:53:54.388Z,16.40
2022-08-20T06:57:00.583Z,18.00
2022-08-20T07:00:08.891Z,15.50
2022-08-20T07:03:15.833Z,17.60
2022-08-20T07:06:22.192Z,16.60
2022-08-20T07:09:29.088Z,15.70
2022-08-20T07:12:36.605Z,16.50
2022-08-20T07:15:43.228Z,18.50
2022-08-20T07:18:49.574Z,17.10
2022-08-20T07:21:56.018Z,16.40
2022-08-20T07:25:02.588Z,17.10
2022-08-20T07:28:13.991Z,14.90
2022-08-20T07:31:37.907Z,16.50
2022-08-20T07:34:44.802Z,15.30
2022-08-20T07:37:54.708Z,15.60
2022-08-20T07:41:04.643Z,14.90
2022-08-20T07:44:10.918Z,18.30
2022-08-20T07:47:21.418Z,18.60
2022-08-20T07:50:29.380Z,17.70
2022-08-20T07:53:39.150Z,15.60
2022-08-20T07:56:45.420Z,14.60
2022-08-20T07:59:51.809Z,14.60
2022-08-20T08:02:58.178Z,16.30
2022-08-20T08:06:05.317Z,15.40
2022-08-20T08:09:14.396Z,15.30
2022-08-20T08:12:21.458Z,14.60
2022-08-20T08:15:32.646Z,14.90
2022-08-20T08:18:43.227Z,13.30
2022-08-20T08:21:49.652Z,14.50
2022-08-20T08:24:58.316Z,18.30
2022-08-20T08:28:06.171Z,14.20
2022-08-20T08:31:13.460Z,18.10
2022-08-20T08:34:20.180Z,14.60
2022-08-20T08:37:30.476Z,17.60
2022-08-20T08:40:37.313Z,16.40
2022-08-20T08:43:46.928Z,14.60
2022-08-20T08:46:57.994Z,18.10
2022-08-20T08:50:07.036Z,15.10
2022-08-20T08:53:20.468Z,14.40
2022-08-20T08:56:29.779Z,14.50
2022-08-20T08:59:53.876Z,14.80
2022-08-20T09:03:09.092Z,16.60
2022-08-20T09:06:21.957Z,15.20
2022-08-20T09:09:31.525Z,14.50
2022-08-20T09:12:37.866Z,18.10
2022-08-20T09:15:44.227Z,15.80
2022-08-20T09:18:50.643Z,16.00
2022-08-20T09:21:57.560Z,16.20
2022-08-20T09:25:04.536Z,15.50
2022-08-20T09:28:10.880Z,16.80
2022-08-20T09:31:19.369Z,14.00
2022-08-20T09:34:31.781Z,17.90
2022-08-20T09:37:38.335Z,16.10
2022-08-20T09:40:44.679Z,15.60
2022-08-20T09:43:51.034Z,13.30
2022-08-20T09:46:57.345Z,16.30
2022-08-20T09:50:03.651Z,13.70
2022-08-20T09:53:11.129Z,14.80
2022-08-20T09:56:18.272Z,14.50
2022-08-20T09:59:24.666Z,15.80
2022-08-20T10:02:31.028Z,16.00
2022-08-20T10:05:37.303Z,15.40
2022-08-20T10:08:43.680Z,14.60
2022-08-20T10:11:50.153Z,13.10
2022-08-20T10:14:57.002Z,13.20
2022-08-20T10:18:07.955Z,14.20
2022-08-20T10:21:14.812Z,14.50
2022-08-20T10:24:21.871Z,15.80
2022-08-20T10:27:28.332Z,15.40
2022-08-20T10:30:34.841Z,16.30
2022-08-20T10:33:41.944Z,16.50
2022-08-20T10:36:48.381Z,15.20
2022-08-20T10:39:55.765Z,15.40
2022-08-20T10:43:03.518Z,14.10
2022-08-20T10:46:10.106Z,13.40
2022-08-20T10:49:16.516Z,12.50
2022-08-20T10:52:23.861Z,12.00
2022-08-20T10:55:30.181Z,12.10
2022-08-20T10:58:39.317Z,12.20
2022-08-20T11:01:46.374Z,11.20
2022-08-20T11:04:53.423Z,11.40
2022-08-20T11:08:00.060Z,13.70
2022-08-20T11:11:07.200Z,14.20
2022-08-20T11:14:13.671Z,14.20
2022-08-20T11:17:24.328Z,11.30
2022-08-20T11:20:32.251Z,13.90
2022-08-20T11:23:38.604Z,14.60
2022-08-20T11:26:45.293Z,13.50
2022-08-20T11:29:51.759Z,12.90
2022-08-20T11:32:58.609Z,16.00
2022-08-20T11:36:05.346Z,12.30
2022-08-20T11:39:11.825Z,12.00
2022-08-20T11:42:18.466Z,12.90
2022-08-20T11:45:24.933Z,10.40
2022-08-20T11:48:31.258Z,13.10
2022-08-20T11:51:49.064Z,10.60
2022-08-20T11:54:56.377Z,13.00
2022-08-20T11:58:03.695Z,11.60
2022-08-20T12:01:10.488Z,10.80
2022-08-20T12:04:16.915Z,11.90
2022-08-20T12:07:25.452Z,13.20
2022-08-20T12:10:32.422Z,11.90
2022-08-20T12:13:48.707Z,13.60
2022-08-20T12:16:55.462Z,11.90
2022-08-20T12:20:04.905Z,12.30
2022-08-20T12:23:11.252Z,13.40
2022-08-20T12:26:18.110Z,13.40
2022-08-20T12:29:26.281Z,14.70
2022-08-20T12:32:33.657Z,12.90
2022-08-20T12:35:39.965Z,13.90
2022-08-20T12:38:46.254Z,13.00
2022-08-20T12:41:52.657Z,13.30
2022-08-20T12:44:59.503Z,11.20
2022-08-20T12:48:08.160Z,13.00
2022-08-20T12:51:14.365Z,13.30
2022-08-20T12:54:20.701Z,12.30
2022-08-20T12:57:29.688Z,19.40
2022-08-20T13:00:38.736Z,16.00
2022-08-20T13:03:49.605Z,11.00
2022-08-20T13:07:01.615Z,15.00
2022-08-20T13:10:10.276Z,12.60
2022-08-20T13:13:20.905Z,15.80
2022-08-20T13:16:27.589Z,13.20
2022-08-20T13:19:35.658Z,13.00
2022-08-20T13:22:42.007Z,14.50
2022-08-20T13:25:48.326Z,14.70
2022-08-20T13:28:54.622Z,13.90
2022-08-20T13:32:00.916Z,14.20
2022-08-20T13:35:08.308Z,11.10
2022-08-20T13:38:15.737Z,13.60
2022-08-20T13:41:21.973Z,12.50
2022-08-20T13:44:32.294Z,9.10
2022-08-20T13:47:42.834Z,7.50
2022-08-20T13:50:49.095Z,8.90
2022-08-20T13:53:55.328Z,11.80
2022-08-20T13:57:10.103Z,9.90
2022-08-20T14:00:20.825Z,7.60
2022-08-20T14:03:27.113Z,9.60
2022-08-20T14:06:33.596Z,8.50
2022-08-20T14:09:42.058Z,8.00
2022-08-20T14:12:48.393Z,8.30
2022-08-20T14:15:55.315Z,10.30
2022-08-20T14:19:01.561Z,24.90
2022-08-20T14:22:07.992Z,10.10
2022-08-20T14:25:17.160Z,8.30
2022-08-20T14:28:25.532Z,7.70
2022-08-20T14:31:31.921Z,8.20
2022-08-20T14:34:38.257Z,9.10
2022-08-20T14:37:48.323Z,8.00
2022-08-20T14:40:54.780Z,10.60
2022-08-20T14:44:01.131Z,8.30
2022-08-20T14:47:18.524Z,8.30
2022-08-20T14:50:27.758Z,9.00
2022-08-20T14:53:38.579Z,9.40
2022-08-20T14:56:46.687Z,7.00
2022-08-20T14:59:55.074Z,8.50
2022-08-20T15:03:01.389Z,7.40
2022-08-20T15:06:20.401Z,7.30
2022-08-20T15:09:30.737Z,9.90
2022-08-20T15:12:37.324Z,8.90
2022-08-20T15:15:43.803Z,10.30
2022-08-20T15:18:50.119Z,11.10
2022-08-20T15:22:02.829Z,10.40
2022-08-20T15:25:11.832Z,10.50
2022-08-20T15:28:19.597Z,8.80
2022-08-20T15:31:26.009Z,9.50
2022-08-20T15:34:32.417Z,10.80
2022-08-20T15:37:42.811Z,10.80
2022-08-20T15:40:49.642Z,11.60
2022-08-20T15:43:55.920Z,11.00
2022-08-20T15:47:22.278Z,10.70
2022-08-20T15:50:57.975Z,11.20
2022-08-20T15:54:07.690Z,10.30
2022-08-20T15:57:17.542Z,9.80
2022-08-20T16:00:27.089Z,13.10
2022-08-20T16:03:55.534Z,11.10
2022-08-20T16:07:08.237Z,10.20
2022-08-20T16:10:23.105Z,9.20
2022-08-20T16:13:38.612Z,12.00
2022-08-20T16:16:48.264Z,14.30
2022-08-20T16:20:04.654Z,13.20
2022-08-20T16:23:12.669Z,12.40
2022-08-20T16:26:35.936Z,11.80
2022-08-20T16:29:52.277Z,12.40
2022-08-20T16:33:04.732Z,12.40
2022-08-20T16:36:16.474Z,12.30
2022-08-20T16:39:26.289Z,11.40
2022-08-20T16:42:39.352Z,11.00
2022-08-20T16:45:53.242Z,11.80
2022-08-20T16:49:01.669Z,10.80
2022-08-20T16:52:08.368Z,13.10
2022-08-20T16:55:15.661Z,13.80
2022-08-20T16:58:22.225Z,13.60
2022-08-20T17:01:29.435Z,11.00
2022-08-20T17:04:45.313Z,14.10
2022-08-20T17:08:07.687Z,11.00
2022-08-20T17:11:17.275Z,14.10
2022-08-20T17:14:23.567Z,15.40
2022-08-20T17:17:32.747Z,16.90
2022-08-20T17:20:46.729Z,14.50
2022-08-20T17:23:56.772Z,14.00
2022-08-20T17:27:10.363Z,14.40
2022-08-20T17:30:24.334Z,14.40
2022-08-20T17:33:34.172Z,14.40
2022-08-20T17:36:50.970Z,12.30
2022-08-20T17:40:09.015Z,15.90
2022-08-20T17:43:28.311Z,16.20
2022-08-20T17:46:37.685Z,15.40
2022-08-20T17:50:01.838Z,12.70
2022-08-20T17:53:23.013Z,15.50
2022-08-20T17:56:34.588Z,18.30
2022-08-20T18:00:01.071Z,15.70
2022-08-20T18:03:20.080Z,15.90
2022-08-20T18:06:34.591Z,14.70
2022-08-20T18:09:49.399Z,14.70
2022-08-20T18:13:03.037Z,12.80
2022-08-20T18:16:17.076Z,13.70
2022-08-20T18:19:41.488Z,13.40
2022-08-20T18:22:54.862Z,13.80
2022-08-20T18:26:09.595Z,16.20
2022-08-20T18:29:19.965Z,12.50
2022-08-20T18:32:32.929Z,14.50
2022-08-20T18:35:44.888Z,12.80
2022-08-20T18:39:05.751Z,15.00
2022-08-20T18:42:25.932Z,13.40
2022-08-20T18:45:34.851Z,13.60
2022-08-20T18:48:51.377Z,13.00
2022-08-20T18:51:58.520Z,12.80
2022-08-20T18:55:09.104Z,12.80
2022-08-20T18:58:29.840Z,12.50
2022-08-20T19:01:39.693Z,13.60
2022-08-20T19:04:50.024Z,12.50
2022-08-20T19:08:02.872Z,13.80
2022-08-20T19:11:29.441Z,13.30
2022-08-20T19:14:58.744Z,15.00
2022-08-20T19:18:11.487Z,12.90
2022-08-20T19:21:20.883Z,12.40
2022-08-20T19:24:30.432Z,13.60
2022-08-20T19:27:37.803Z,13.90
2022-08-20T19:30:45.055Z,13.60
2022-08-20T19:34:02.264Z,12.80
2022-08-20T19:37:34.755Z,14.10
2022-08-20T19:40:45.926Z,12.20
2022-08-20T19:43:53.851Z,13.40
2022-08-20T19:47:00.950Z,12.80
2022-08-20T19:50:20.848Z,11.30
2022-08-20T19:53:31.004Z,14.10
2022-08-20T19:56:42.794Z,14.20
2022-08-20T19:59:58.307Z,14.30
2022-08-20T20:06:22.040Z,15.50
2022-08-20T20:09:31.015Z,16.00
2022-08-20T20:12:37.995Z,13.90
2022-08-20T20:15:45.067Z,17.60
2022-08-20T20:19:15.624Z,16.70
2022-08-20T20:22:21.570Z,16.30
2022-08-20T20:25:42.566Z,16.10
2022-08-20T20:28:52.135Z,14.60
2022-08-20T20:32:00.415Z,14.50
2022-08-20T20:35:09.112Z,16.20
2022-08-20T20:38:26.919Z,16.90
2022-08-20T20:41:33.554Z,13.60
2022-08-20T20:44:41.410Z,14.10
2022-08-20T20:47:53.424Z,14.40
2022-08-20T20:51:00.770Z,16.10
2022-08-20T20:54:08.947Z,13.70
2022-08-20T20:57:32.040Z,12.50
2022-08-20T21:00:45.151Z,14.30
2022-08-20T21:03:51.888Z,15.20
2022-08-20T21:07:00.533Z,14.00
2022-08-20T21:10:07.667Z,13.30
2022-08-20T21:13:16.391Z,14.00
2022-08-20T21:16:22.807Z,16.70
2022-08-20T21:19:29.472Z,14.50
2022-08-20T21:22:38.524Z,15.70
2022-08-20T21:25:44.965Z,13.00
2022-08-20T21:28:51.236Z,14.20
2022-08-20T21:31:58.715Z,14.90
2022-08-20T21:35:05.254Z,14.10
2022-08-20T21:38:11.883Z,15.10
2022-08-20T21:41:29.617Z,17.20
2022-08-20T21:44:38.549Z,17.20
2022-08-20T21:47:54.328Z,14.10
2022-08-20T21:51:00.701Z,14.20
2022-08-20T21:54:07.035Z,15.80
2022-08-20T21:57:21.769Z,13.80
2022-08-20T22:00:58.784Z,14.70
2022-08-20T22:04:06.956Z,13.30
2022-08-20T22:07:14.245Z,13.40
2022-08-20T22:10:20.800Z,16.00
2022-08-20T22:13:31.767Z,17.10
2022-08-20T22:16:38.630Z,15.60
2022-08-20T22:19:51.856Z,13.90
2022-08-20T22:22:58.461Z,17.70
2022-08-20T22:26:05.013Z,14.50
2022-08-20T22:29:12.974Z,13.10
2022-08-20T22:32:19.603Z,15.70
2022-08-20T22:35:42.938Z,14.00
2022-08-20T22:38:54.776Z,14.50
2022-08-20T22:42:01.529Z,15.70
2022-08-20T22:45:11.742Z,15.20
2022-08-20T22:48:23.061Z,17.10
2022-08-20T22:51:32.645Z,16.10
2022-08-20T22:54:44.564Z,13.50
2022-08-20T22:57:51.603Z,15.60
2022-08-20T23:00:59.744Z,14.60
2022-08-20T23:04:11.418Z,14.20
2022-08-20T23:07:19.268Z,15.20
2022-08-20T23:10:26.259Z,13.10
2022-08-20T23:13:32.552Z,15.70
2022-08-20T23:16:40.226Z,14.30
2022-08-20T23:19:49.112Z,15.00
2022-08-20T23:22:56.246Z,12.70
2022-08-20T23:26:03.816Z,13.60
2022-08-20T23:29:10.394Z,17.40
2022-08-20T23:32:17.427Z,15.00
2022-08-20T23:35:24.149Z,15.60
2022-08-20T23:38:38.655Z,14.90
2022-08-20T23:41:45.431Z,12.70
2022-08-20T23:44:54.586Z,12.80
2022-08-20T23:48:01.049Z,13.20
2022-08-20T23:51:08.290Z,15.80
2022-08-20T23:54:14.574Z,12.70
2022-08-20T23:57:21.214Z,12.90
